Time;durP1;ratioP1;P1;durP2;ratioP2;P2;SDS_P1;SDS_P2;PMS_P1;PMS_P2;Temp;Humidity;BMP_temperature;BMP_pressure;BME280_temperature;BME280_humidity;BME280_pressure;Samples;Min_cycle;Max_cycle;Signal;HPM_P1;HPM_P2
2022/01/14 00:01:49;;;;;;;180.20;20.67;;;;;;;-146.64;100.00;102932.75;5108196;27;20390;-75
2022/01/14 00:04:15;;;;;;;156.48;21.17;;;;;;;-146.64;100.00;103198.94;5123348;27;20027;-75
2022/01/14 00:06:40;;;;;;;138.63;19.85;;;;;;;-146.64;100.00;103198.94;5104570;27;20042;-75
2022/01/14 00:09:08;;;;;;;151.90;19.92;;;;;;;-146.64;100.00;102932.75;5091458;28;20501;-75
2022/01/14 00:11:36;;;;;;;198.98;22.50;;;;;;;-146.64;100.00;103198.94;5117807;27;20516;-76
2022/01/14 00:16:30;;;;;;;150.07;20.48;;;;;;;-146.64;100.00;103198.94;5117207;27;20023;-75
2022/01/14 00:18:57;;;;;;;122.25;21.55;;;;;;;-146.64;100.00;103198.94;5115745;27;20493;-76
2022/01/14 00:21:23;;;;;;;118.82;20.67;;;;;;;-146.64;100.00;103198.94;5090711;27;20490;-76
2022/01/14 00:23:52;;;;;;;204.52;23.55;;;;;;;-146.64;100.00;103198.94;5092706;27;20050;-76
2022/01/14 00:31:57;;;;;;;157.57;20.73;;;;;;;-146.64;100.00;103198.94;5118847;27;20022;-75
2022/01/14 00:34:22;;;;;;;139.53;22.17;;;;;;;-146.64;100.00;103198.94;5118777;27;20076;-75
2022/01/14 00:36:48;;;;;;;119.95;21.33;;;;;;;-146.64;100.00;103198.94;5097926;28;20035;-76
2022/01/14 00:39:13;;;;;;;140.27;19.33;;;;;;;-146.64;100.00;103198.94;5112306;28;20051;-75
2022/01/14 00:41:39;;;;;;;170.52;20.38;;;;;;;-146.64;100.00;102932.75;5114517;28;20064;-75
2022/01/14 00:44:10;;;;;;;129.38;20.65;;;;;;;-146.64;100.00;102932.75;5115113;28;20054;-75
2022/01/14 00:46:37;;;;;;;131.05;20.40;;;;;;;-146.64;100.00;103198.94;5115938;28;20646;-75
2022/01/14 00:49:02;;;;;;;101.30;16.25;;;;;;;-146.64;100.00;103198.94;5095609;28;20019;-76
2022/01/14 00:51:28;;;;;;;74.32;18.30;;;;;;;-146.64;100.00;103198.94;5114840;27;20041;-75
2022/01/14 00:53:53;;;;;;;91.35;19.35;;;;;;;-146.64;100.00;103198.94;5112272;27;20740;-75
2022/01/14 01:01:34;;;;;;;120.25;21.10;;;;;;;-146.64;100.00;103198.94;5119264;28;20509;-75
2022/01/14 01:04:00;;;;;;;108.78;19.35;;;;;;;-146.64;100.00;103198.94;5111177;27;20028;-75
2022/01/14 01:06:25;;;;;;;115.10;21.20;;;;;;;-146.64;100.00;103198.94;5116732;28;20023;-75
2022/01/14 01:08:52;;;;;;;104.30;21.90;;;;;;;-146.64;100.00;102932.75;5130694;27;20471;-75
2022/01/14 01:11:24;;;;;;;105.80;19.73;;;;;;;-146.64;100.00;102932.75;5117684;27;20313;-75
2022/01/14 01:13:59;;;;;;;113.30;18.92;;;;;;;-146.64;100.00;102932.75;5131746;27;20390;-75
2022/01/14 01:16:25;;;;;;;208.70;20.40;;;;;;;-146.64;100.00;102666.59;5099980;28;20023;-75
2022/01/14 01:18:50;;;;;;;209.95;21.17;;;;;;;-146.64;100.00;102666.59;5101040;28;20023;-75
2022/01/14 01:21:15;;;;;;;142.88;21.15;;;;;;;-146.64;100.00;102666.59;5139617;27;20039;-75
2022/01/14 01:23:41;;;;;;;105.80;19.13;;;;;;;-146.64;100.00;102666.59;5132486;27;20393;-75
2022/01/14 01:26:50;;;;;;;146.20;20.23;;;;;;;-146.64;100.00;102666.59;5114948;28;20031;-76
2022/01/14 01:31:35;;;;;;;133.77;19.60;;;;;;;-146.64;100.00;102666.59;5110473;28;20106;-75
2022/01/14 01:34:21;;;;;;;170.70;20.33;;;;;;;-146.64;100.00;102666.59;5123576;28;20042;-75
2022/01/14 01:36:48;;;;;;;179.18;19.83;;;;;;;-146.64;100.00;102666.59;5135410;28;20046;-76
2022/01/14 01:39:16;;;;;;;165.48;20.25;;;;;;;-146.64;100.00;102666.59;5090356;27;20122;-75
2022/01/14 01:41:50;;;;;;;125.97;20.17;;;;;;;-146.64;100.00;102666.59;5097925;28;20391;-75
2022/01/14 01:44:18;;;;;;;200.93;20.08;;;;;;;-146.64;100.00;102666.59;5110736;27;20026;-75
2022/01/14 01:46:45;;;;;;;211.27;22.13;;;;;;;-146.64;100.00;102666.59;5114983;28;20027;-75
2022/01/14 01:49:12;;;;;;;203.85;21.98;;;;;;;-146.64;100.00;102666.59;5100472;28;20084;-75
2022/01/14 01:53:59;;;;;;;108.38;20.02;;;;;;;-146.64;100.00;102400.44;5067078;27;1444121;-75
2022/01/14 01:56:25;;;;;;;112.05;18.88;;;;;;;-146.64;100.00;102666.59;5083234;28;20463;-75
2022/01/14 01:58:51;;;;;;;178.07;20.38;;;;;;;-146.64;100.00;102400.44;5093543;28;20487;-75
2022/01/14 02:01:17;;;;;;;213.48;23.35;;;;;;;-146.64;100.00;102666.59;5087215;28;20020;-75
2022/01/14 02:03:42;;;;;;;210.47;21.60;;;;;;;-146.64;100.00;102666.59;5084384;28;20050;-75
2022/01/14 02:06:07;;;;;;;172.98;22.63;;;;;;;-146.64;100.00;102400.44;5070991;28;20372;-75
2022/01/14 02:08:34;;;;;;;214.57;21.88;;;;;;;-146.64;100.00;102666.59;5089788;28;20024;-74
2022/01/14 02:11:00;;;;;;;228.65;19.83;;;;;;;-146.64;100.00;102400.44;5069150;28;20488;-75
2022/01/14 02:13:26;;;;;;;244.15;21.05;;;;;;;-146.64;100.00;102400.44;5076046;28;20066;-74
2022/01/14 02:23:49;;;;;;;164.85;20.23;;;;;;;-146.64;100.00;102400.44;5071071;28;20043;-75
2022/01/14 02:26:17;;;;;;;217.98;20.10;;;;;;;-146.64;100.00;102134.31;5037242;28;20036;-75
2022/01/14 02:28:42;;;;;;;235.60;19.35;;;;;;;-146.64;100.00;102134.31;5052347;28;20032;-75
2022/01/14 02:31:08;;;;;;;259.30;20.65;;;;;;;-146.64;100.00;102134.31;5058426;28;20503;-75
2022/01/14 02:33:34;;;;;;;206.93;20.08;;;;;;;-146.64;100.00;102134.31;5048274;28;20143;-74
2022/01/14 02:35:59;;;;;;;159.10;18.80;;;;;;;-146.64;100.00;102134.31;5062787;28;20028;-75
2022/01/14 02:38:25;;;;;;;154.50;19.10;;;;;;;-146.64;100.00;102134.31;5082899;28;20024;-75
2022/01/14 02:40:50;;;;;;;160.82;18.35;;;;;;;-146.64;100.00;102134.31;5051456;28;20052;-74
2022/01/14 02:43:17;;;;;;;157.43;17.83;;;;;;;-146.64;100.00;102134.31;5066990;28;20016;-74
2022/01/14 02:45:50;;;;;;;118.03;17.33;;;;;;;-146.64;100.00;102134.31;5072436;28;20103;-75
2022/01/14 02:48:17;;;;;;;140.05;19.20;;;;;;;-146.64;100.00;102134.31;5089817;28;20028;-75
2022/01/14 02:50:54;;;;;;;166.63;20.42;;;;;;;-146.64;100.00;102134.31;5078841;28;20055;-74
2022/01/14 02:53:30;;;;;;;155.80;20.73;;;;;;;-146.64;100.00;102134.31;5071437;28;20119;-75
2022/01/14 02:55:58;;;;;;;136.15;19.35;;;;;;;-146.64;100.00;102400.44;5072451;28;20040;-75
2022/01/14 02:58:25;;;;;;;122.45;17.17;;;;;;;-146.64;100.00;102400.44;5054704;28;20024;-75
2022/01/14 03:00:52;;;;;;;137.45;18.48;;;;;;;-146.64;100.00;102400.44;5083846;28;20361;-74
2022/01/14 03:03:22;;;;;;;166.10;19.30;;;;;;;-146.64;100.00;102400.44;5061349;28;20020;-75
2022/01/14 03:05:48;;;;;;;175.50;19.05;;;;;;;-146.64;100.00;102400.44;5058044;28;20033;-74
2022/01/14 03:08:16;;;;;;;100.65;16.92;;;;;;;-146.64;100.00;102400.44;5041781;28;20040;-75
2022/01/14 03:10:42;;;;;;;105.72;16.92;;;;;;;-146.64;100.00;102400.44;5057543;28;20060;-75
2022/01/14 03:13:07;;;;;;;119.38;17.80;;;;;;;-146.64;100.00;102400.44;5046647;28;20067;-74
2022/01/14 03:15:32;;;;;;;197.23;19.50;;;;;;;-146.64;100.00;102400.44;5072236;28;20478;-77
2022/01/14 03:17:58;;;;;;;112.22;17.98;;;;;;;-146.64;100.00;102400.44;5054195;28;20435;-75
2022/01/14 03:21:09;;;;;;;77.93;16.65;;;;;;;-146.64;100.00;102666.59;5051948;28;20398;-74
2022/01/14 03:23:13;;;;;;;68.60;15.65;;;;;;;-146.64;100.00;102666.59;5048392;28;20035;-74
2022/01/14 03:25:48;;;;;;;100.07;17.33;;;;;;;-146.64;100.00;102666.59;5054419;28;20036;-74
2022/01/14 03:28:24;;;;;;;59.08;16.08;;;;;;;-146.64;100.00;102666.59;5038221;28;20467;-74
2022/01/14 03:30:51;;;;;;;135.77;18.48;;;;;;;-146.64;100.00;102666.59;5036582;28;20097;-74
2022/01/14 03:33:17;;;;;;;92.07;17.17;;;;;;;-146.64;100.00;102666.59;5036595;28;20016;-74
2022/01/14 03:35:42;;;;;;;100.63;18.55;;;;;;;-146.64;100.00;102666.59;5053146;28;20036;-74
2022/01/14 03:38:08;;;;;;;80.47;18.10;;;;;;;-146.64;100.00;102666.59;5052795;28;20544;-74
2022/01/14 03:40:33;;;;;;;113.35;17.98;;;;;;;-146.64;100.00;102666.59;5053818;28;20040;-74
2022/01/14 03:42:58;;;;;;;134.75;18.60;;;;;;;-146.64;100.00;102666.59;5034866;28;20051;-74
2022/01/14 03:45:24;;;;;;;102.88;19.15;;;;;;;-146.64;100.00;102666.59;5071279;28;20638;-74
2022/01/14 03:47:49;;;;;;;90.60;18.38;;;;;;;-146.64;100.00;102666.59;5048918;28;20021;-74
2022/01/14 03:50:14;;;;;;;125.97;19.95;;;;;;;-146.64;100.00;102666.59;5030360;28;20511;-74
2022/01/14 03:52:40;;;;;;;127.32;20.58;;;;;;;-146.64;100.00;102666.59;5068889;28;20037;-74
2022/01/14 03:55:06;;;;;;;87.20;20.35;;;;;;;-146.64;100.00;102666.59;5053234;28;20112;-74
2022/01/14 03:57:31;;;;;;;152.07;21.45;;;;;;;-146.64;100.00;102666.59;5034816;28;20397;-74
2022/01/14 03:59:56;;;;;;;118.43;20.55;;;;;;;-146.64;100.00;102666.59;5052894;28;20036;-75
2022/01/14 04:02:22;;;;;;;105.93;22.02;;;;;;;-146.64;100.00;102666.59;5060983;28;20506;-74
2022/01/14 04:04:47;;;;;;;132.10;22.98;;;;;;;-146.64;100.00;102666.59;5033134;28;20035;-74
2022/01/14 04:07:12;;;;;;;170.10;20.85;;;;;;;-146.64;100.00;102666.59;5043754;28;20588;-74
2022/01/14 04:09:37;;;;;;;198.40;22.23;;;;;;;-146.64;100.00;102666.59;5036749;28;20028;-75
2022/01/14 04:12:04;;;;;;;104.60;18.15;;;;;;;-146.64;100.00;102666.59;5035587;28;20173;-75
2022/01/14 04:16:57;;;;;;;93.22;19.35;;;;;;;-146.64;100.00;102666.59;5049388;28;20032;-74
2022/01/14 04:19:25;;;;;;;59.40;18.52;;;;;;;-146.64;100.00;102400.44;5070472;28;20032;-74
2022/01/14 04:21:51;;;;;;;128.60;19.77;;;;;;;-146.64;100.00;102400.44;5032987;28;20516;-74
2022/01/14 04:24:16;;;;;;;90.35;17.10;;;;;;;-146.64;100.00;102666.59;5048410;28;20028;-74
2022/01/14 04:26:41;;;;;;;106.28;17.73;;;;;;;-146.64;100.00;102400.44;5051675;28;20447;-74
2022/01/14 04:29:07;;;;;;;80.20;16.17;;;;;;;-146.64;100.00;102400.44;5063171;28;20027;-74
2022/01/14 04:31:32;;;;;;;126.45;18.00;;;;;;;-146.64;100.00;102400.44;5043729;28;20033;-74
2022/01/14 04:33:57;;;;;;;123.43;17.98;;;;;;;-146.64;100.00;102134.31;5043524;28;20111;-74
2022/01/14 04:36:23;;;;;;;134.65;18.00;;;;;;;-146.64;100.00;102134.31;5050069;28;20028;-74
2022/01/14 04:38:48;;;;;;;120.03;15.77;;;;;;;-146.64;100.00;102134.31;5068489;28;20122;-74
2022/01/14 04:41:13;;;;;;;131.23;16.73;;;;;;;-146.64;100.00;102134.31;5050639;28;20025;-74
2022/01/14 04:43:39;;;;;;;82.40;15.80;;;;;;;-146.64;100.00;102134.31;5048923;28;20024;-74
2022/01/14 04:48:34;;;;;;;173.77;18.65;;;;;;;-146.64;100.00;102134.31;5070201;28;20029;-74
2022/01/14 04:51:00;;;;;;;110.18;16.80;;;;;;;-146.64;100.00;102134.31;5051328;28;20028;-74
2022/01/14 04:53:27;;;;;;;134.57;16.43;;;;;;;-146.64;100.00;102134.31;5069509;28;20063;-74
2022/01/14 04:55:53;;;;;;;176.13;18.65;;;;;;;-146.64;100.00;102134.31;5052681;28;20123;-74
2022/01/14 04:58:18;;;;;;;108.93;16.80;;;;;;;-146.64;100.00;102134.31;5052170;28;20036;-74
2022/01/14 05:00:44;;;;;;;106.20;17.80;;;;;;;-146.64;100.00;102134.31;5053666;28;20082;-74
2022/01/14 05:03:09;;;;;;;146.38;17.60;;;;;;;-146.64;100.00;101868.22;5052661;28;20033;-74
2022/01/14 05:05:39;;;;;;;205.82;19.33;;;;;;;-146.64;100.00;101868.22;5044749;28;20028;-74
2022/01/14 05:08:09;;;;;;;192.35;16.83;;;;;;;-146.64;100.00;101602.13;5063176;28;20043;-75
2022/01/14 05:10:47;;;;;;;158.82;16.05;;;;;;;-146.64;100.00;101868.22;5048557;28;20028;-74
2022/01/14 05:13:12;;;;;;;;;;;;;;;-146.64;100.00;101868.22;5055516;28;20028;-74
2022/01/14 05:15:37;;;;;;;129.60;17.58;;;;;;;-146.64;100.00;101868.22;5069606;28;20401;-74
2022/01/14 05:18:02;;;;;;;85.90;16.67;;;;;;;-146.64;100.00;101868.22;5032910;28;20040;-74
2022/01/14 05:20:28;;;;;;;140.40;17.02;;;;;;;-146.64;100.00;101602.13;5065098;28;20035;-74
2022/01/14 05:22:53;;;;;;;132.93;15.50;;;;;;;-146.64;100.00;101868.22;5046866;28;20616;-74
2022/01/14 05:25:18;;;;;;;201.07;22.30;;;;;;;-146.64;100.00;101602.13;5053484;28;20119;-74
2022/01/14 05:27:44;;;;;;;153.98;17.02;;;;;;;-146.64;100.00;101602.13;5031329;28;20389;-74
2022/01/14 05:30:11;;;;;;;135.48;16.65;;;;;;;-146.64;100.00;101602.13;5049278;28;20127;-75
2022/01/14 05:32:36;;;;;;;;;;;;;;;-146.64;100.00;101602.13;5052052;28;20043;-74
2022/01/14 05:35:03;;;;;;;86.22;16.58;;;;;;;-146.64;100.00;101602.13;5049491;28;19908;-74
2022/01/14 05:37:28;;;;;;;96.93;17.08;;;;;;;-146.64;100.00;101602.13;5033633;28;20369;-74
2022/01/14 05:39:56;;;;;;;155.75;17.63;;;;;;;-146.64;100.00;101602.13;5046810;28;20039;-74
2022/01/14 05:42:21;;;;;;;173.77;16.35;;;;;;;-146.64;100.00;101602.13;5053502;28;20020;-74
2022/01/14 05:44:46;;;;;;;153.48;18.45;;;;;;;-146.64;100.00;101602.13;5034992;28;20012;-74
2022/01/14 05:47:12;;;;;;;182.35;19.25;;;;;;;-146.64;100.00;101602.13;5067631;28;20020;-74
2022/01/14 05:49:37;;;;;;;128.98;18.10;;;;;;;-146.64;100.00;101602.13;5053646;28;20507;-74
2022/01/14 05:52:03;;;;;;;130.20;17.65;;;;;;;-146.64;100.00;101602.13;5067479;28;20064;-74
2022/01/14 05:54:28;;;;;;;172.73;17.58;;;;;;;-146.64;100.00;101602.13;5063325;28;20119;-74
2022/01/14 05:56:53;;;;;;;168.57;18.30;;;;;;;-146.64;100.00;101602.13;5062222;28;20388;-74
2022/01/14 05:59:19;;;;;;;152.93;17.10;;;;;;;-146.64;100.00;101602.13;5033891;28;20020;-74
2022/01/14 06:01:44;;;;;;;131.40;18.88;;;;;;;-146.64;100.00;101602.13;5050314;28;20537;-74
2022/01/14 06:04:10;;;;;;;111.80;17.58;;;;;;;-146.64;100.00;101602.13;5050230;28;20036;-74
2022/01/14 06:06:35;;;;;;;176.30;17.02;;;;;;;-146.64;100.00;101602.13;5068501;28;20442;-74
2022/01/14 06:09:01;;;;;;;182.23;17.58;;;;;;;-146.64;100.00;101336.06;5034504;28;20507;-74
2022/01/14 06:11:27;;;;;;;164.70;17.77;;;;;;;-146.64;100.00;101336.06;5067062;28;20332;-74
2022/01/14 06:13:53;;;;;;;203.70;16.30;;;;;;;-146.64;100.00;101336.06;5050446;28;20028;-74
2022/01/14 06:16:18;;;;;;;175.32;16.90;;;;;;;-146.64;100.00;101336.06;5050868;28;20106;-75
2022/01/14 06:18:44;;;;;;;235.43;18.75;;;;;;;-146.64;100.00;101336.06;5062975;28;20024;-74
2022/01/14 06:21:09;;;;;;;207.38;19.05;;;;;;;-146.64;100.00;101336.06;5033299;28;20493;-74
2022/01/14 06:23:35;;;;;;;224.93;19.10;;;;;;;-146.64;100.00;101336.06;5048817;28;20021;-74
2022/01/14 06:26:00;;;;;;;219.38;17.45;;;;;;;-146.64;100.00;101336.06;5051046;28;20032;-74
2022/01/14 06:28:26;;;;;;;259.25;19.20;;;;;;;-146.64;100.00;101336.06;5048690;28;20044;-74
2022/01/14 06:30:51;;;;;;;204.57;18.58;;;;;;;-146.64;100.00;101336.06;5068407;28;20028;-74
2022/01/14 06:33:17;;;;;;;166.43;18.88;;;;;;;-146.64;100.00;101336.06;5050622;28;20368;-74
2022/01/14 06:35:42;;;;;;;191.90;16.40;;;;;;;-146.64;100.00;101336.06;5031527;28;20025;-74
2022/01/14 06:38:07;;;;;;;189.50;17.92;;;;;;;-146.64;100.00;101336.06;5045018;28;20032;-74
2022/01/14 06:40:33;;;;;;;238.82;19.00;;;;;;;-146.64;100.00;101602.13;5038092;28;20020;-74
2022/01/14 06:42:59;;;;;;;201.93;17.90;;;;;;;-146.64;100.00;101602.13;5036780;28;20404;-74
2022/01/14 06:45:24;;;;;;;160.45;18.38;;;;;;;-146.64;100.00;101602.13;5053562;28;20095;-74
2022/01/14 06:47:50;;;;;;;228.93;19.00;;;;;;;-146.64;100.00;101336.06;5053609;28;20029;-74
2022/01/14 06:50:16;;;;;;;151.18;17.98;;;;;;;-146.64;100.00;101336.06;5053558;28;20368;-74
2022/01/14 06:52:41;;;;;;;152.48;16.73;;;;;;;-146.64;100.00;101336.06;5069652;28;20068;-74
2022/01/14 06:55:08;;;;;;;124.53;13.52;;;;;;;-146.64;100.00;101336.06;5041287;28;20067;-74
2022/01/14 06:57:33;;;;;;;235.63;19.27;;;;;;;-146.64;100.00;101336.06;5052889;28;20544;-74
2022/01/14 06:59:58;;;;;;;161.52;17.20;;;;;;;-146.64;100.00;101336.06;5050014;28;20032;-74
2022/01/14 07:02:24;;;;;;;182.77;18.00;;;;;;;-146.64;100.00;101336.06;5035466;28;20025;-74
2022/01/14 07:04:49;;;;;;;207.60;18.55;;;;;;;-146.64;100.00;101336.06;5065918;28;20115;-74
2022/01/14 07:07:15;;;;;;;189.90;18.30;;;;;;;-146.64;100.00;101336.06;5051990;28;20028;-74
2022/01/14 07:09:58;;;;;;;223.93;18.35;;;;;;;-146.64;100.00;101336.06;5067467;28;20044;-74
2022/01/14 07:12:24;;;;;;;189.55;19.75;;;;;;;-146.64;100.00;101336.06;5039669;28;20032;-74
2022/01/14 07:14:49;;;;;;;229.73;18.52;;;;;;;-146.64;100.00;101336.06;5046948;28;20043;-74
2022/01/14 07:17:15;;;;;;;205.70;21.05;;;;;;;-146.64;100.00;101336.06;5050802;28;20401;-74
2022/01/14 07:19:40;;;;;;;201.60;17.88;;;;;;;-146.64;100.00;101336.06;5050166;28;20029;-74
2022/01/14 07:22:06;;;;;;;250.90;20.95;;;;;;;-146.64;100.00;101336.06;5048105;28;20550;-74
2022/01/14 07:24:32;;;;;;;175.73;14.10;;;;;;;-146.64;100.00;101070.00;5053619;28;20032;-74
2022/01/14 07:26:57;;;;;;;217.00;18.77;;;;;;;-146.64;100.00;101070.00;5072284;28;20668;-74
2022/01/14 07:29:23;;;;;;;152.93;18.85;;;;;;;-146.64;100.00;101336.06;5041950;28;20401;-74
2022/01/14 07:31:48;;;;;;;179.50;19.45;;;;;;;-146.64;100.00;101336.06;5050957;28;20028;-74
2022/01/14 07:34:13;;;;;;;119.90;19.40;;;;;;;-146.64;100.00;101336.06;5050237;28;20382;-74
2022/01/14 07:36:38;;;;;;;318.25;21.48;;;;;;;-146.64;100.00;101070.00;5018325;28;20041;-74
2022/01/14 07:39:06;;;;;;;159.30;19.35;;;;;;;-146.64;100.00;101070.00;5041997;28;20021;-74
2022/01/14 07:41:32;;;;;;;;;;;;;;;-146.64;100.00;101070.00;5052638;28;20032;-74
2022/01/14 07:43:57;;;;;;;242.70;21.55;;;;;;;-146.64;100.00;101070.00;5047774;28;19935;-74
2022/01/14 07:46:22;;;;;;;254.15;21.35;;;;;;;-146.64;100.00;101070.00;5033518;28;20132;-74
2022/01/14 07:48:48;;;;;;;175.63;18.50;;;;;;;-146.64;100.00;101070.00;5063164;28;20025;-74
2022/01/14 07:51:13;;;;;;;216.93;19.88;;;;;;;-146.64;100.00;101070.00;5049002;28;20024;-74
2022/01/14 07:53:40;;;;;;;253.30;19.95;;;;;;;-146.64;100.00;101070.00;5041625;28;20032;-76
2022/01/14 07:56:07;;;;;;;234.63;20.60;;;;;;;-146.64;100.00;101070.00;5050831;28;20035;-75
2022/01/14 07:58:32;;;;;;;207.50;18.58;;;;;;;-146.64;100.00;101070.00;5036232;28;20024;-75
2022/01/14 08:00:58;;;;;;;170.18;18.35;;;;;;;-146.64;100.00;101070.00;5071698;28;20464;-75
2022/01/14 08:03:23;;;;;;;206.73;18.30;;;;;;;-146.64;100.00;101070.00;5050962;28;20043;-75
2022/01/14 08:05:49;;;;;;;130.82;17.08;;;;;;;-146.64;100.00;101070.00;5033782;28;20029;-75
2022/01/14 08:08:15;;;;;;;176.88;18.00;;;;;;;-146.64;100.00;101070.00;5045743;28;20033;-75
2022/01/14 08:10:40;;;;;;;183.77;19.95;;;;;;;-146.64;100.00;101070.00;5045942;28;20404;-75
2022/01/14 08:13:05;;;;;;;192.68;19.70;;;;;;;-146.64;100.00;100803.97;5049538;28;20033;-75
2022/01/14 08:15:31;;;;;;;182.73;17.63;;;;;;;-146.64;100.00;100803.97;5050508;28;20035;-74
2022/01/14 08:17:59;;;;;;;212.82;18.95;;;;;;;-146.64;100.00;100537.94;5046913;28;20039;-74
2022/01/14 08:20:24;;;;;;;160.98;18.48;;;;;;;-146.64;100.00;100537.94;5036416;28;20102;-75
2022/01/14 08:22:49;;;;;;;194.57;18.38;;;;;;;-146.64;100.00;100005.94;5045799;28;20067;-75
2022/01/14 08:25:15;;;;;;;200.60;20.25;;;;;;;-146.64;100.00;99739.97;5051724;28;20033;-74
2022/01/14 08:27:40;;;;;;;193.13;19.23;;;;;;;-146.64;100.00;99739.97;5049105;28;20032;-74
2022/01/14 08:30:06;;;;;;;148.35;17.95;;;;;;;-146.64;100.00;99739.97;5053785;28;20027;-74
2022/01/14 08:32:32;;;;;;;135.20;17.67;;;;;;;-146.64;100.00;99739.97;5052975;28;20036;-74
2022/01/14 08:34:58;;;;;;;136.13;18.67;;;;;;;-146.64;100.00;100005.94;5049549;28;20154;-74
2022/01/14 08:37:23;;;;;;;142.60;18.38;;;;;;;-146.64;100.00;99739.97;5068769;28;20229;-74
2022/01/14 08:39:49;;;;;;;182.10;18.83;;;;;;;-146.64;100.00;99739.97;5069487;28;20074;-74
2022/01/14 08:42:14;;;;;;;201.98;18.55;;;;;;;-146.64;100.00;99739.97;5049678;28;20069;-74
2022/01/14 08:44:40;;;;;;;136.77;17.15;;;;;;;-146.64;100.00;99739.97;5036119;28;20395;-74
2022/01/14 08:47:09;;;;;;;159.25;18.00;;;;;;;-146.64;100.00;99739.97;5052783;28;20020;-74
2022/01/14 08:49:38;;;;;;;131.02;18.55;;;;;;;-146.64;100.00;99474.03;5045990;28;20021;-74
2022/01/14 08:52:04;;;;;;;114.65;17.42;;;;;;;-146.64;100.00;99739.97;5049130;28;20024;-74
2022/01/14 08:54:30;;;;;;;145.48;17.85;;;;;;;-146.64;100.00;99739.97;5067583;28;20416;-74
2022/01/14 08:56:56;;;;;;;147.15;20.17;;;;;;;-146.64;100.00;99474.03;5049592;28;20027;-75
2022/01/14 08:59:22;;;;;;;87.00;18.17;;;;;;;-146.64;100.00;99474.03;5039963;28;20506;-74
2022/01/14 09:01:47;;;;;;;153.38;18.27;;;;;;;-146.64;100.00;99474.03;5052338;28;20033;-74
2022/01/14 09:04:12;;;;;;;101.35;18.40;;;;;;;-146.64;100.00;99739.97;5057907;28;20047;-74
2022/01/14 09:06:38;;;;;;;52.00;17.23;;;;;;;-146.64;100.00;99474.03;5033938;28;20063;-74
2022/01/14 09:09:03;;;;;;;83.35;16.60;;;;;;;-146.64;100.00;99474.03;5048156;28;20036;-74
2022/01/14 09:11:29;;;;;;;98.97;19.38;;;;;;;-146.64;100.00;99474.03;5052708;28;20082;-74
2022/01/14 09:13:54;;;;;;;82.15;19.10;;;;;;;-146.64;100.00;99474.03;5026343;28;20079;-75
2022/01/14 09:16:20;;;;;;;92.18;18.15;;;;;;;-146.64;100.00;99208.09;5022458;28;20117;-74
2022/01/14 09:18:47;;;;;;;74.07;17.30;;;;;;;-146.64;100.00;99208.09;5049077;28;20020;-75
2022/01/14 09:21:12;;;;;;;55.42;18.98;;;;;;;-146.64;100.00;98942.19;5015785;28;20034;-74
2022/01/14 09:23:38;;;;;;;31.58;17.85;;;;;;;-146.64;100.00;98942.19;5035878;28;20028;-74
2022/01/14 09:26:03;;;;;;;74.53;17.85;;;;;;;-146.64;100.00;98676.28;5052524;28;20043;-74
2022/01/14 09:28:29;;;;;;;65.68;18.25;;;;;;;-146.64;100.00;98144.53;5051763;28;20053;-74
2022/01/14 09:30:55;;;;;;;59.30;19.98;;;;;;;-146.64;100.00;97878.69;5046525;28;20032;-74
2022/01/14 09:33:21;;;;;;;66.07;18.15;;;;;;;-146.64;100.00;97612.84;5050998;28;20032;-74
2022/01/14 09:35:47;;;;;;;40.35;18.95;;;;;;;-146.64;100.00;97878.69;5052749;28;20024;-74
2022/01/14 09:38:13;;;;;;;43.92;18.50;;;;;;;-146.64;100.00;97612.84;5048589;28;20321;-74
2022/01/14 09:40:42;;;;;;;39.85;17.50;;;;;;;-146.64;100.00;97347.03;5018346;28;20516;-74
2022/01/14 09:43:07;;;;;;;43.28;17.17;;;;;;;-146.64;100.00;96815.47;5051931;28;20078;-74
2022/01/14 09:45:34;;;;;;;35.67;18.90;;;;;;;-146.64;100.00;96815.47;5050668;28;20028;-74
2022/01/14 09:48:00;;;;;;;36.97;17.67;;;;;;;-146.64;100.00;96815.47;5032360;28;20495;-74
2022/01/14 09:50:25;;;;;;;27.88;17.23;;;;;;;-146.64;100.00;96815.47;5034815;28;20025;-74
2022/01/14 09:52:51;;;;;;;31.70;18.50;;;;;;;-146.64;100.00;96549.72;5068442;28;20389;-74
2022/01/14 09:55:21;;;;;;;31.65;18.20;;;;;;;-146.64;100.00;96283.97;5067802;28;20035;-74
2022/01/14 09:57:47;;;;;;;34.25;19.20;;;;;;;-146.64;100.00;95752.53;5048409;28;20024;-74
2022/01/14 10:00:13;;;;;;;30.50;18.20;;;;;;;-146.64;100.00;95752.53;5041088;28;20028;-74
2022/01/14 10:02:40;;;;;;;28.73;17.02;;;;;;;-146.64;100.00;95221.19;5048043;28;20154;-74
2022/01/14 10:05:08;;;;;;;32.17;18.63;;;;;;;-146.64;100.00;95221.19;5031133;28;20552;-74
2022/01/14 10:07:33;;;;;;;28.13;16.85;;;;;;;-146.64;100.00;94955.53;5055093;28;20035;-75
2022/01/14 10:10:00;;;;;;;28.13;17.95;;;;;;;-146.64;100.00;94158.66;5048516;28;20021;-74
2022/01/14 10:12:33;;;;;;;28.30;18.45;;;;;;;-146.64;100.00;94158.66;5030938;28;20123;-74
2022/01/14 10:15:01;;;;;;;30.98;18.60;;;;;;;-146.64;100.00;93361.97;5065547;28;20024;-75
2022/01/14 10:17:45;;;;;;;34.05;19.77;;;;;;;-146.64;100.00;93361.97;5035514;28;20072;-74
2022/01/14 10:20:13;;;;;;;33.03;17.60;;;;;;;-146.64;100.00;92830.91;5049913;28;20032;-74
2022/01/14 10:22:41;;;;;;;27.38;18.13;;;;;;;-146.64;100.00;92565.41;5055007;28;20024;-74
2022/01/14 10:25:09;;;;;;;35.28;20.38;;;;;;;-146.64;100.00;92299.94;5053933;28;20039;-74
2022/01/14 10:27:46;;;;;;;31.70;19.45;;;;;;;-146.64;100.00;91769.03;5034640;28;20487;-74
2022/01/14 10:30:16;;;;;;;33.72;19.85;;;;;;;-146.64;100.00;92299.94;5028204;28;20048;-74
2022/01/14 10:32:42;;;;;;;26.33;18.13;;;;;;;-146.64;100.00;92034.47;5068373;28;20040;-74
2022/01/14 10:35:11;;;;;;;30.60;18.67;;;;;;;-146.64;100.00;91238.19;5036332;28;20024;-74
2022/01/14 10:37:37;;;;;;;26.77;18.80;;;;;;;-146.64;100.00;90442.06;5066498;28;20055;-75
2022/01/14 10:40:13;;;;;;;30.33;18.67;;;;;;;-146.64;100.00;89911.41;5049171;28;20025;-74
2022/01/14 10:42:39;;;;;;;31.40;18.05;;;;;;;-146.64;100.00;89380.81;5068796;28;20047;-74
2022/01/14 10:45:22;;;;;;;28.95;17.92;;;;;;;-146.64;100.00;88319.81;5047072;28;20055;-74
2022/01/14 10:47:53;;;;;;;32.58;19.30;;;;;;;-146.64;100.00;88850.28;5054165;28;20029;-75
2022/01/14 10:50:38;;;;;;;31.73;18.50;;;;;;;-146.64;100.00;89115.53;5072762;28;20024;-76
2022/01/14 10:53:13;;;;;;;29.60;18.35;;;;;;;-146.64;100.00;89115.53;5054351;28;20514;-74
2022/01/14 10:55:41;;;;;;;31.65;19.30;;;;;;;-146.64;100.00;88319.81;5072761;28;20029;-75
2022/01/14 10:58:25;;;;;;;30.70;19.98;;;;;;;-146.64;100.00;87524.28;5033063;28;20470;-74
2022/01/14 11:00:55;;;;;;;29.33;18.00;;;;;;;-146.64;100.00;86198.72;5051726;28;20036;-74
2022/01/14 11:03:41;;;;;;;33.58;18.80;;;;;;;-146.64;100.00;86198.72;5031122;28;20021;-74
2022/01/14 11:06:16;;;;;;;27.45;18.52;;;;;;;-146.64;100.00;85668.59;5047965;28;20118;-74
2022/01/14 11:08:42;;;;;;;28.13;18.30;;;;;;;-146.64;100.00;84873.56;5038080;28;20111;-74
2022/01/14 11:11:08;;;;;;;31.65;18.92;;;;;;;-146.64;100.00;86198.72;5049916;28;20119;-74
2022/01/14 11:13:33;;;;;;;29.77;18.55;;;;;;;-146.64;100.00;86463.78;5053129;28;20059;-74
2022/01/14 11:15:59;;;;;;;28.83;19.40;;;;;;;-146.64;100.00;85138.56;5055004;28;20047;-74